VIV3205 MMMY-MMGL
Flight info
| Callsign | VIV3205 |
|---|---|
| Flight time | 1h 1m |
| Altitude | 36000 |
| Route | KERGA1A KERGA UT44 MEZCA MEZCA1B |
| Aircraft | A321/M-SDE3FGHIRWY/LB1 |
Departure
| Time | 2026-05-06 00:13 |
|---|---|
| Airport | Monterrey International Airport (MMMY) |
Arrival
| Time | 2026-05-06 01:14 |
|---|---|
| Airport | Guadalajara International Airport (MMGL) |
| Time | Latitude | Longitude | Altitude | Speed | Heading |
|---|---|---|---|---|---|
| 2026-05-06 00:01 | 25.78080 | -100.11873 | 1283 ft | 0 kts | 210° |
| 2026-05-06 00:06 | 25.78083 | -100.11871 | 1283 ft | 2 kts | 211° |
| 2026-05-06 00:06 | 25.78096 | -100.11862 | 1283 ft | 2 kts | 210° |
| 2026-05-06 00:07 | 25.78109 | -100.11854 | 1283 ft | 2 kts | 211° |
| 2026-05-06 00:07 | 25.78123 | -100.11845 | 1283 ft | 2 kts | 221° |
| 2026-05-06 00:07 | 25.78130 | -100.11830 | 1283 ft | 2 kts | 258° |
| 2026-05-06 00:07 | 25.78130 | -100.11813 | 1283 ft | 2 kts | 292° |
| 2026-05-06 00:08 | 25.78127 | -100.11807 | 1283 ft | 0 kts | 304° |
| 2026-05-06 00:08 | 25.78139 | -100.11831 | 1283 ft | 4 kts | 302° |
| 2026-05-06 00:08 | 25.78146 | -100.11844 | 1283 ft | 0 kts | 301° |
| 2026-05-06 00:11 | 25.78147 | -100.11844 | 1283 ft | 0 kts | 301° |
| 2026-05-06 00:11 | 25.78191 | -100.11859 | 1283 ft | 12 kts | 25° |
| 2026-05-06 00:11 | 25.78274 | -100.11805 | 1283 ft | 16 kts | 32° |
| 2026-05-06 00:12 | 25.78379 | -100.11733 | 1283 ft | 13 kts | 31° |
| 2026-05-06 00:12 | 25.78393 | -100.11686 | 1283 ft | 6 kts | 113° |
| 2026-05-06 00:12 | 25.78390 | -100.11678 | 1283 ft | 0 kts | 121° |
| 2026-05-06 00:12 | 25.78322 | -100.11553 | 1283 ft | 55 kts | 121° |
| 2026-05-06 00:13 | 25.77975 | -100.10922 | 1283 ft | 130 kts | 122° |
| 2026-05-06 00:13 | 25.77432 | -100.09938 | 1694 ft | 152 kts | 121° |
| 2026-05-06 00:13 | 25.76906 | -100.08965 | 2415 ft | 148 kts | 121° |
| 2026-05-06 00:13 | 25.76370 | -100.07968 | 3008 ft | 155 kts | 122° |
| 2026-05-06 00:14 | 25.75782 | -100.06892 | 3517 ft | 169 kts | 122° |
| 2026-05-06 00:14 | 25.75137 | -100.05720 | 4028 ft | 185 kts | 122° |
| 2026-05-06 00:14 | 25.74439 | -100.04454 | 4525 ft | 203 kts | 123° |
| 2026-05-06 00:14 | 25.73697 | -100.03107 | 5060 ft | 204 kts | 123° |
| 2026-05-06 00:15 | 25.72947 | -100.01745 | 5437 ft | 210 kts | 123° |
| 2026-05-06 00:15 | 25.72171 | -100.00337 | 5797 ft | 216 kts | 123° |
| 2026-05-06 00:15 | 25.71279 | -99.98962 | 6141 ft | 221 kts | 139° |
| 2026-05-06 00:15 | 25.69929 | -99.98194 | 6488 ft | 223 kts | 170° |
| 2026-05-06 00:16 | 25.68381 | -99.98112 | 6887 ft | 227 kts | 181° |
| 2026-05-06 00:16 | 25.66794 | -99.98145 | 7253 ft | 233 kts | 182° |
| 2026-05-06 00:16 | 25.65103 | -99.98189 | 7555 ft | 245 kts | 182° |
| 2026-05-06 00:16 | 25.63383 | -99.98228 | 7931 ft | 254 kts | 182° |
| 2026-05-06 00:17 | 25.61572 | -99.98259 | 8313 ft | 264 kts | 181° |
| 2026-05-06 00:17 | 25.59720 | -99.98285 | 8691 ft | 273 kts | 181° |
| 2026-05-06 00:17 | 25.57783 | -99.98308 | 9072 ft | 282 kts | 181° |
| 2026-05-06 00:17 | 25.55791 | -99.98328 | 9451 ft | 290 kts | 181° |
| 2026-05-06 00:18 | 25.53737 | -99.98349 | 9832 ft | 294 kts | 181° |
| 2026-05-06 00:18 | 25.51678 | -99.98369 | 10210 ft | 300 kts | 181° |
| 2026-05-06 00:18 | 25.49561 | -99.98388 | 10590 ft | 308 kts | 181° |
| 2026-05-06 00:18 | 25.47396 | -99.98406 | 10968 ft | 315 kts | 181° |
| 2026-05-06 00:19 | 25.45170 | -99.98426 | 11348 ft | 323 kts | 182° |
| 2026-05-06 00:19 | 25.42906 | -99.98447 | 11725 ft | 329 kts | 182° |
| 2026-05-06 00:19 | 25.40596 | -99.98467 | 12103 ft | 336 kts | 182° |
| 2026-05-06 00:19 | 25.38231 | -99.98487 | 12483 ft | 342 kts | 182° |
| 2026-05-06 00:20 | 25.35816 | -99.98509 | 12864 ft | 348 kts | 182° |
| 2026-05-06 00:20 | 25.33392 | -99.98591 | 13231 ft | 354 kts | 184° |
| 2026-05-06 00:20 | 25.30910 | -99.98712 | 13675 ft | 357 kts | 184° |
| 2026-05-06 00:20 | 25.28437 | -99.98837 | 14154 ft | 359 kts | 184° |
| 2026-05-06 00:21 | 25.25912 | -99.98962 | 14634 ft | 361 kts | 184° |
| 2026-05-06 00:21 | 25.23392 | -99.99084 | 15106 ft | 364 kts | 184° |
| 2026-05-06 00:21 | 25.20876 | -99.99205 | 15575 ft | 366 kts | 185° |
| 2026-05-06 00:21 | 25.18316 | -99.99326 | 16047 ft | 368 kts | 185° |
| 2026-05-06 00:22 | 25.15760 | -99.99446 | 16513 ft | 370 kts | 185° |
| 2026-05-06 00:22 | 25.13171 | -99.99567 | 16979 ft | 373 kts | 185° |
| 2026-05-06 00:22 | 25.10592 | -99.99687 | 17437 ft | 375 kts | 185° |
| 2026-05-06 00:22 | 25.07990 | -99.99809 | 17884 ft | 377 kts | 185° |
| 2026-05-06 00:23 | 25.05345 | -99.99933 | 18326 ft | 380 kts | 185° |
| 2026-05-06 00:23 | 25.02709 | -100.00056 | 18756 ft | 382 kts | 185° |
| 2026-05-06 00:23 | 25.00048 | -100.00181 | 19181 ft | 385 kts | 185° |
| 2026-05-06 00:23 | 24.97364 | -100.00334 | 19594 ft | 387 kts | 188° |
| 2026-05-06 00:24 | 24.94757 | -100.00879 | 19988 ft | 387 kts | 198° |
| 2026-05-06 00:24 | 24.92232 | -100.01958 | 20400 ft | 386 kts | 209° |
| 2026-05-06 00:24 | 24.89878 | -100.03413 | 20829 ft | 387 kts | 213° |
| 2026-05-06 00:24 | 24.87544 | -100.04949 | 21250 ft | 389 kts | 213° |
| 2026-05-06 00:25 | 24.85236 | -100.06474 | 21661 ft | 391 kts | 213° |
| 2026-05-06 00:25 | 24.82877 | -100.08028 | 22082 ft | 393 kts | 213° |
| 2026-05-06 00:25 | 24.80552 | -100.09554 | 22497 ft | 395 kts | 213° |
| 2026-05-06 00:25 | 24.78182 | -100.11105 | 22907 ft | 397 kts | 213° |
| 2026-05-06 00:26 | 24.75805 | -100.12659 | 23295 ft | 400 kts | 213° |
| 2026-05-06 00:26 | 24.73387 | -100.14236 | 23672 ft | 402 kts | 213° |
| 2026-05-06 00:26 | 24.70991 | -100.15799 | 24034 ft | 404 kts | 213° |
| 2026-05-06 00:26 | 24.68582 | -100.17368 | 24390 ft | 406 kts | 213° |
| 2026-05-06 00:27 | 24.66126 | -100.18967 | 24742 ft | 409 kts | 213° |
| 2026-05-06 00:27 | 24.63702 | -100.20544 | 25071 ft | 411 kts | 213° |
| 2026-05-06 00:27 | 24.61225 | -100.22155 | 25402 ft | 413 kts | 213° |
| 2026-05-06 00:27 | 24.58755 | -100.23760 | 25731 ft | 415 kts | 214° |
| 2026-05-06 00:28 | 24.56259 | -100.25382 | 26058 ft | 417 kts | 214° |
| 2026-05-06 00:28 | 24.53757 | -100.27007 | 26377 ft | 419 kts | 214° |
| 2026-05-06 00:28 | 24.51240 | -100.28640 | 26687 ft | 421 kts | 214° |
| 2026-05-06 00:28 | 24.48729 | -100.30269 | 26989 ft | 422 kts | 214° |
| 2026-05-06 00:29 | 24.46209 | -100.31903 | 27285 ft | 424 kts | 214° |
| 2026-05-06 00:29 | 24.43630 | -100.33575 | 27575 ft | 426 kts | 214° |
| 2026-05-06 00:29 | 24.41082 | -100.35226 | 27848 ft | 428 kts | 214° |
| 2026-05-06 00:29 | 24.38511 | -100.36890 | 28115 ft | 430 kts | 214° |
| 2026-05-06 00:30 | 24.35926 | -100.38563 | 28376 ft | 432 kts | 214° |
| 2026-05-06 00:30 | 24.33347 | -100.40232 | 28634 ft | 433 kts | 214° |
| 2026-05-06 00:30 | 24.30711 | -100.41936 | 28878 ft | 435 kts | 214° |
| 2026-05-06 00:30 | 24.28105 | -100.43632 | 29134 ft | 437 kts | 211° |
| 2026-05-06 00:31 | 24.25458 | -100.45359 | 29483 ft | 436 kts | 211° |
| 2026-05-06 00:31 | 24.22851 | -100.47031 | 29649 ft | 440 kts | 210° |
| 2026-05-06 00:31 | 24.20190 | -100.48735 | 29820 ft | 443 kts | 210° |
| 2026-05-06 00:31 | 24.17518 | -100.50450 | 30049 ft | 445 kts | 211° |
| 2026-05-06 00:32 | 24.14813 | -100.52188 | 30287 ft | 446 kts | 211° |
| 2026-05-06 00:32 | 24.12112 | -100.53925 | 30513 ft | 448 kts | 211° |
| 2026-05-06 00:32 | 24.09410 | -100.55663 | 30730 ft | 449 kts | 211° |
| 2026-05-06 00:32 | 24.06730 | -100.57388 | 30937 ft | 450 kts | 211° |
| 2026-05-06 00:33 | 24.04014 | -100.59134 | 31142 ft | 452 kts | 211° |
| 2026-05-06 00:33 | 24.01296 | -100.60882 | 31341 ft | 453 kts | 211° |
| 2026-05-06 00:33 | 23.98578 | -100.62628 | 31535 ft | 455 kts | 211° |
| 2026-05-06 00:33 | 23.95821 | -100.64399 | 31728 ft | 456 kts | 211° |
| 2026-05-06 00:34 | 23.93111 | -100.66143 | 31915 ft | 457 kts | 210° |
| 2026-05-06 00:34 | 23.90362 | -100.67921 | 32094 ft | 459 kts | 210° |
| 2026-05-06 00:34 | 23.87608 | -100.69696 | 32265 ft | 460 kts | 210° |
| 2026-05-06 00:34 | 23.84839 | -100.71470 | 32429 ft | 461 kts | 210° |
| 2026-05-06 00:35 | 23.82070 | -100.73241 | 32586 ft | 462 kts | 210° |
| 2026-05-06 00:35 | 23.79267 | -100.75032 | 32738 ft | 463 kts | 210° |
| 2026-05-06 00:35 | 23.76488 | -100.76809 | 32882 ft | 464 kts | 210° |
| 2026-05-06 00:35 | 23.73682 | -100.78602 | 33021 ft | 465 kts | 210° |
| 2026-05-06 00:36 | 23.70903 | -100.80378 | 33153 ft | 466 kts | 210° |
| 2026-05-06 00:36 | 23.68102 | -100.82166 | 33280 ft | 467 kts | 210° |
| 2026-05-06 00:36 | 23.65277 | -100.83969 | 33403 ft | 468 kts | 210° |
| 2026-05-06 00:36 | 23.62464 | -100.85762 | 33520 ft | 469 kts | 210° |
| 2026-05-06 00:37 | 23.59633 | -100.87566 | 33633 ft | 470 kts | 210° |
| 2026-05-06 00:37 | 23.56783 | -100.89382 | 33741 ft | 471 kts | 210° |
| 2026-05-06 00:37 | 23.53946 | -100.91190 | 33845 ft | 471 kts | 211° |
| 2026-05-06 00:38 | 23.48480 | -100.95097 | 33980 ft | 473 kts | 216° |
| 2026-05-06 00:38 | 23.43193 | -100.99300 | 33972 ft | 468 kts | 216° |
| 2026-05-06 00:39 | 23.37942 | -101.03476 | 33971 ft | 467 kts | 216° |
| 2026-05-06 00:39 | 23.32671 | -101.07658 | 33971 ft | 467 kts | 216° |
| 2026-05-06 00:40 | 23.27427 | -101.11812 | 33970 ft | 467 kts | 216° |
| 2026-05-06 00:40 | 23.22155 | -101.15984 | 33971 ft | 467 kts | 216° |
| 2026-05-06 00:41 | 23.16888 | -101.20145 | 33971 ft | 467 kts | 216° |
| 2026-05-06 00:41 | 23.11635 | -101.24293 | 33971 ft | 467 kts | 216° |
| 2026-05-06 00:42 | 23.06354 | -101.28459 | 33970 ft | 467 kts | 216° |
| 2026-05-06 00:42 | 23.01103 | -101.32596 | 33971 ft | 467 kts | 216° |
| 2026-05-06 00:43 | 22.95797 | -101.36773 | 33971 ft | 467 kts | 216° |
| 2026-05-06 00:43 | 22.90552 | -101.40913 | 33970 ft | 467 kts | 216° |
| 2026-05-06 00:44 | 22.85267 | -101.45024 | 33970 ft | 467 kts | 216° |
| 2026-05-06 00:44 | 22.79988 | -101.49138 | 33970 ft | 467 kts | 216° |
| 2026-05-06 00:45 | 22.74761 | -101.53227 | 33970 ft | 467 kts | 216° |
| 2026-05-06 00:45 | 22.69493 | -101.57352 | 33970 ft | 467 kts | 216° |
| 2026-05-06 00:46 | 22.64248 | -101.61457 | 33970 ft | 467 kts | 216° |
| 2026-05-06 00:46 | 22.58958 | -101.65595 | 33970 ft | 467 kts | 216° |
| 2026-05-06 00:47 | 22.53692 | -101.69737 | 33970 ft | 467 kts | 216° |
| 2026-05-06 00:47 | 22.48434 | -101.73852 | 33970 ft | 467 kts | 216° |
| 2026-05-06 00:48 | 22.43168 | -101.77954 | 33970 ft | 467 kts | 216° |
| 2026-05-06 00:48 | 22.37877 | -101.82076 | 33970 ft | 467 kts | 216° |
| 2026-05-06 00:49 | 22.32535 | -101.86240 | 33970 ft | 467 kts | 216° |
| 2026-05-06 00:49 | 22.27257 | -101.90346 | 33970 ft | 467 kts | 216° |
| 2026-05-06 00:50 | 22.21955 | -101.94463 | 33970 ft | 467 kts | 216° |
| 2026-05-06 00:50 | 22.16701 | -101.98537 | 33970 ft | 467 kts | 216° |
| 2026-05-06 00:51 | 22.11400 | -102.02644 | 33970 ft | 467 kts | 216° |
| 2026-05-06 00:51 | 22.06086 | -102.06756 | 33970 ft | 467 kts | 216° |
| 2026-05-06 00:52 | 22.00792 | -102.10847 | 33970 ft | 467 kts | 216° |
| 2026-05-06 00:52 | 21.95458 | -102.14930 | 33971 ft | 467 kts | 214° |
| 2026-05-06 00:53 | 21.89981 | -102.18787 | 33971 ft | 467 kts | 213° |
| 2026-05-06 00:53 | 21.84472 | -102.22608 | 33732 ft | 468 kts | 213° |
| 2026-05-06 00:53 | 21.81750 | -102.24495 | 33358 ft | 468 kts | 213° |
| 2026-05-06 00:54 | 21.79001 | -102.26404 | 32980 ft | 469 kts | 213° |
| 2026-05-06 00:54 | 21.76271 | -102.28301 | 32605 ft | 469 kts | 213° |
| 2026-05-06 00:54 | 21.73536 | -102.30203 | 32049 ft | 471 kts | 213° |
| 2026-05-06 00:54 | 21.70813 | -102.32205 | 31415 ft | 472 kts | 216° |
| 2026-05-06 00:55 | 21.68215 | -102.34335 | 30787 ft | 473 kts | 218° |
| 2026-05-06 00:55 | 21.65611 | -102.36530 | 30150 ft | 474 kts | 218° |
| 2026-05-06 00:55 | 21.63005 | -102.38734 | 29512 ft | 475 kts | 218° |
| 2026-05-06 00:55 | 21.60396 | -102.40939 | 28872 ft | 477 kts | 218° |
| 2026-05-06 00:56 | 21.57763 | -102.43162 | 28228 ft | 478 kts | 218° |
| 2026-05-06 00:56 | 21.55155 | -102.45362 | 27590 ft | 479 kts | 218° |
| 2026-05-06 00:56 | 21.52519 | -102.47583 | 26945 ft | 481 kts | 218° |
| 2026-05-06 00:56 | 21.49914 | -102.49776 | 26307 ft | 482 kts | 218° |
| 2026-05-06 00:57 | 21.47267 | -102.52003 | 25659 ft | 483 kts | 218° |
| 2026-05-06 00:57 | 21.44607 | -102.54239 | 25008 ft | 484 kts | 218° |
| 2026-05-06 00:57 | 21.41945 | -102.56476 | 24358 ft | 486 kts | 218° |
| 2026-05-06 00:57 | 21.39304 | -102.58693 | 23712 ft | 487 kts | 218° |
| 2026-05-06 00:58 | 21.36651 | -102.60918 | 23149 ft | 483 kts | 218° |
| 2026-05-06 00:58 | 21.34005 | -102.63139 | 22611 ft | 480 kts | 218° |
| 2026-05-06 00:58 | 21.31382 | -102.65338 | 22089 ft | 475 kts | 218° |
| 2026-05-06 00:58 | 21.28801 | -102.67515 | 21543 ft | 465 kts | 218° |
| 2026-05-06 00:59 | 21.26276 | -102.69645 | 20924 ft | 458 kts | 218° |
| 2026-05-06 00:59 | 21.23784 | -102.71738 | 20339 ft | 450 kts | 218° |
| 2026-05-06 00:59 | 21.21344 | -102.73781 | 20029 ft | 438 kts | 218° |
| 2026-05-06 00:59 | 21.18944 | -102.75788 | 19991 ft | 437 kts | 218° |
| 2026-05-06 01:00 | 21.16539 | -102.77795 | 19985 ft | 437 kts | 218° |
| 2026-05-06 01:00 | 21.14120 | -102.79782 | 19955 ft | 435 kts | 215° |
| 2026-05-06 01:00 | 21.11463 | -102.81218 | 19529 ft | 430 kts | 196° |
| 2026-05-06 01:00 | 21.08491 | -102.81546 | 18986 ft | 427 kts | 175° |
| 2026-05-06 01:01 | 21.05555 | -102.81090 | 18597 ft | 428 kts | 169° |
| 2026-05-06 01:01 | 21.02644 | -102.80496 | 18199 ft | 426 kts | 169° |
| 2026-05-06 01:01 | 20.99729 | -102.79955 | 17801 ft | 423 kts | 171° |
| 2026-05-06 01:01 | 20.96851 | -102.79484 | 17402 ft | 408 kts | 171° |
| 2026-05-06 01:02 | 20.94154 | -102.79051 | 17038 ft | 385 kts | 171° |
| 2026-05-06 01:02 | 20.91509 | -102.78625 | 16680 ft | 382 kts | 171° |
| 2026-05-06 01:02 | 20.88877 | -102.78202 | 16321 ft | 376 kts | 171° |
| 2026-05-06 01:02 | 20.86363 | -102.77799 | 16040 ft | 364 kts | 171° |
| 2026-05-06 01:03 | 20.83836 | -102.77394 | 15827 ft | 364 kts | 171° |
| 2026-05-06 01:03 | 20.81355 | -102.76997 | 15619 ft | 362 kts | 171° |
| 2026-05-06 01:03 | 20.78847 | -102.76594 | 15409 ft | 361 kts | 171° |
| 2026-05-06 01:03 | 20.76352 | -102.76239 | 15193 ft | 360 kts | 177° |
| 2026-05-06 01:04 | 20.73923 | -102.76658 | 14956 ft | 353 kts | 203° |
| 2026-05-06 01:04 | 20.71886 | -102.78012 | 14770 ft | 342 kts | 216° |
| 2026-05-06 01:04 | 20.69985 | -102.79527 | 14572 ft | 332 kts | 217° |
| 2026-05-06 01:04 | 20.68136 | -102.80981 | 14381 ft | 322 kts | 216° |
| 2026-05-06 01:05 | 20.66326 | -102.82364 | 14194 ft | 313 kts | 215° |
| 2026-05-06 01:05 | 20.64574 | -102.83675 | 14015 ft | 306 kts | 214° |
| 2026-05-06 01:05 | 20.62832 | -102.84959 | 13840 ft | 305 kts | 214° |
| 2026-05-06 01:05 | 20.61669 | -102.85811 | 13723 ft | 304 kts | 214° |
| 2026-05-06 01:06 | 20.59342 | -102.87508 | 13490 ft | 303 kts | 214° |
| 2026-05-06 01:06 | 20.57637 | -102.88748 | 13309 ft | 288 kts | 214° |
| 2026-05-06 01:06 | 20.55947 | -102.89975 | 13143 ft | 294 kts | 214° |
| 2026-05-06 01:06 | 20.54245 | -102.91209 | 12972 ft | 292 kts | 214° |
| 2026-05-06 01:07 | 20.52594 | -102.92406 | 12802 ft | 281 kts | 214° |
| 2026-05-06 01:07 | 20.50990 | -102.93567 | 12641 ft | 276 kts | 214° |
| 2026-05-06 01:07 | 20.49410 | -102.94710 | 12466 ft | 270 kts | 214° |
| 2026-05-06 01:07 | 20.47865 | -102.95828 | 12250 ft | 264 kts | 214° |
| 2026-05-06 01:08 | 20.46364 | -102.96913 | 12050 ft | 257 kts | 214° |
| 2026-05-06 01:08 | 20.44890 | -102.97980 | 11854 ft | 251 kts | 214° |
| 2026-05-06 01:08 | 20.43456 | -102.99017 | 11666 ft | 248 kts | 214° |
| 2026-05-06 01:08 | 20.42032 | -103.00047 | 11479 ft | 248 kts | 214° |
| 2026-05-06 01:09 | 20.40753 | -103.01270 | 11265 ft | 247 kts | 240° |
| 2026-05-06 01:09 | 20.40345 | -103.03032 | 11071 ft | 246 kts | 278° |
| 2026-05-06 01:09 | 20.40913 | -103.04765 | 10899 ft | 246 kts | 296° |
| 2026-05-06 01:09 | 20.41685 | -103.06380 | 10713 ft | 242 kts | 297° |
| 2026-05-06 01:10 | 20.42431 | -103.07967 | 10532 ft | 240 kts | 296° |
| 2026-05-06 01:10 | 20.43161 | -103.09595 | 10348 ft | 239 kts | 295° |
| 2026-05-06 01:10 | 20.43859 | -103.11204 | 10135 ft | 240 kts | 295° |
| 2026-05-06 01:10 | 20.44544 | -103.12810 | 9871 ft | 238 kts | 294° |
| 2026-05-06 01:11 | 20.45219 | -103.14406 | 9608 ft | 235 kts | 294° |
| 2026-05-06 01:11 | 20.45890 | -103.15997 | 9345 ft | 233 kts | 294° |
| 2026-05-06 01:11 | 20.46542 | -103.17544 | 9087 ft | 226 kts | 294° |
| 2026-05-06 01:11 | 20.47175 | -103.19054 | 8821 ft | 216 kts | 294° |
| 2026-05-06 01:12 | 20.47747 | -103.20477 | 8629 ft | 200 kts | 292° |
| 2026-05-06 01:12 | 20.48242 | -103.21771 | 8506 ft | 179 kts | 292° |
| 2026-05-06 01:12 | 20.48703 | -103.22966 | 8199 ft | 167 kts | 293° |
| 2026-05-06 01:12 | 20.49161 | -103.24101 | 7693 ft | 167 kts | 294° |
| 2026-05-06 01:13 | 20.49653 | -103.25223 | 7179 ft | 168 kts | 294° |
| 2026-05-06 01:13 | 20.50122 | -103.26351 | 6717 ft | 165 kts | 294° |
| 2026-05-06 01:13 | 20.50582 | -103.27458 | 6230 ft | 165 kts | 294° |
| 2026-05-06 01:13 | 20.51074 | -103.28588 | 5647 ft | 171 kts | 295° |
| 2026-05-06 01:14 | 20.52051 | -103.30808 | 5021 ft | 128 kts | 295° |
| 2026-05-06 01:14 | 20.52289 | -103.31369 | 5021 ft | 46 kts | 301° |
| 2026-05-06 01:14 | 20.52429 | -103.31532 | 5021 ft | 10 kts | 325° |
| 2026-05-06 01:15 | 20.52457 | -103.31553 | 5021 ft | 0 kts | 325° |
| 2026-05-06 01:16 | 20.52458 | -103.31554 | 5021 ft | 2 kts | 325° |
| 2026-05-06 01:16 | 20.52497 | -103.31582 | 5021 ft | 7 kts | 330° |
| 2026-05-06 01:16 | 20.52569 | -103.31586 | 5021 ft | 5 kts | 18° |
| 2026-05-06 01:16 | 20.52573 | -103.31584 | 5021 ft | 0 kts | 18° |
| 2026-05-06 01:17 | 20.52593 | -103.31572 | 5021 ft | 11 kts | 49° |
| 2026-05-06 01:17 | 20.52576 | -103.31458 | 5021 ft | 21 kts | 109° |
| 2026-05-06 01:17 | 20.52527 | -103.31309 | 5021 ft | 19 kts | 109° |
| 2026-05-06 01:17 | 20.52485 | -103.31180 | 5021 ft | 16 kts | 109° |
| 2026-05-06 01:18 | 20.52449 | -103.31070 | 5021 ft | 17 kts | 109° |
| 2026-05-06 01:18 | 20.52430 | -103.30936 | 5021 ft | 17 kts | 73° |
| 2026-05-06 01:18 | 20.52468 | -103.30823 | 5021 ft | 14 kts | 69° |
| 2026-05-06 01:18 | 20.52503 | -103.30723 | 5021 ft | 15 kts | 69° |
| 2026-05-06 01:19 | 20.52516 | -103.30688 | 5021 ft | 0 kts | 68° |
| 2026-05-06 01:20 | 20.52527 | -103.30658 | 5021 ft | 3 kts | 68° |
| 2026-05-06 01:20 | 20.52533 | -103.30643 | 5021 ft | 3 kts | 68° |
| 2026-05-06 01:20 | 20.52537 | -103.30592 | 5021 ft | 8 kts | 120° |
| 2026-05-06 01:21 | 20.52484 | -103.30553 | 5021 ft | 6 kts | 150° |
| 2026-05-06 01:21 | 20.52451 | -103.30527 | 5021 ft | 4 kts | 135° |
| 2026-05-06 01:21 | 20.52435 | -103.30503 | 5021 ft | 3 kts | 112° |
| 2026-05-06 01:21 | 20.52428 | -103.30481 | 5021 ft | 4 kts | 109° |
| 2026-05-06 01:22 | 20.52426 | -103.30466 | 5021 ft | 0 kts | 79° |
| 2026-05-06 01:22 | 20.52427 | -103.30462 | 5021 ft | 2 kts | 63° |
| 2026-05-06 01:22 | 20.52438 | -103.30456 | 5021 ft | 3 kts | 8° |
| 2026-05-06 01:22 | 20.52454 | -103.30454 | 5021 ft | 1 kts | 10° |
| 2026-05-06 01:23 | 20.52485 | -103.30447 | 5021 ft | 2 kts | 10° |
| 2026-05-06 01:23 | 20.52490 | -103.30447 | 5021 ft | 0 kts | 10° |